Time;durP1;ratioP1;P1;durP2;ratioP2;P2;SDS_P1;SDS_P2;PMS_P1;PMS_P2;Temp;Humidity;BMP_temperature;BMP_pressure;BME280_temperature;BME280_humidity;BME280_pressure;Samples;Min_cycle;Max_cycle;Signal;HPM_P1;HPM_P2
2022/10/04 00:03:47;;;;;;;6.18;1.60;;;;;;;;;;20586754;28;20105;-68
2022/10/04 00:13:55;;;;;;;6.32;1.70;;;;;;;;;;20586057;28;20427;-71
2022/10/04 00:24:09;;;;;;;6.68;1.88;;;;;;;;;;20586675;28;20133;-67
2022/10/04 00:34:11;;;;;;;4.53;1.10;;;;;;;;;;20613572;28;20446;-68
2022/10/04 00:44:16;;;;;;;8.07;1.42;;;;;;;;;;20598399;28;20047;-68
2022/10/04 00:54:33;;;;;;;5.22;1.30;;;;;;;;;;20598284;28;20046;-72
2022/10/04 01:04:35;;;;;;;4.43;1.30;;;;;;;;;;20596877;28;20051;-68
2022/10/04 01:14:44;;;;;;;10.15;1.33;;;;;;;;;;20597419;28;20050;-72
2022/10/04 01:24:50;;;;;;;4.18;1.23;;;;;;;;;;20596967;28;20058;-69
2022/10/04 01:34:55;;;;;;;6.53;1.88;;;;;;;;;;20595383;28;20047;-72
2022/10/04 01:45:05;;;;;;;7.00;1.75;;;;;;;;;;20593558;28;20054;-67
2022/10/04 01:55:18;;;;;;;6.20;1.60;;;;;;;;;;20594273;28;20065;-67
2022/10/04 02:05:29;;;;;;;6.43;1.45;;;;;;;;;;20592461;28;20065;-67
2022/10/04 02:15:34;;;;;;;7.47;1.80;;;;;;;;;;20592449;28;20550;-66
2022/10/04 02:25:38;;;;;;;4.30;0.98;;;;;;;;;;20606318;28;20058;-66
2022/10/04 02:35:45;;;;;;;8.95;1.20;;;;;;;;;;20589934;28;20047;-67
2022/10/04 02:45:54;;;;;;;6.60;1.08;;;;;;;;;;20589414;28;20098;-65
2022/10/04 02:55:57;;;;;;;9.18;1.88;;;;;;;;;;20588523;28;20059;-65
2022/10/04 03:05:59;;;;;;;3.72;1.60;;;;;;;;;;20602814;28;20108;-71
2022/10/04 03:16:01;;;;;;;4.22;1.60;;;;;;;;;;20588250;28;20046;-72
2022/10/04 03:26:09;;;;;;;6.47;1.80;;;;;;;;;;20587323;28;20391;-72
2022/10/04 03:36:13;;;;;;;7.10;1.70;;;;;;;;;;20587552;28;20061;-71
2022/10/04 03:46:16;;;;;;;7.00;1.30;;;;;;;;;;20586949;28;20445;-71
2022/10/04 03:56:21;;;;;;;4.97;1.42;;;;;;;;;;20586590;28;20046;-70
2022/10/04 04:06:23;;;;;;;5.35;1.25;;;;;;;;;;20596021;28;20058;-72
2022/10/04 04:16:25;;;;;;;5.72;1.50;;;;;;;;;;20601657;28;20073;-72
2022/10/04 04:26:33;;;;;;;11.63;1.77;;;;;;;;;;20600703;28;20487;-71
2022/10/04 04:36:40;;;;;;;3.23;1.00;;;;;;;;;;20599955;28;20058;-72
2022/10/04 04:46:44;;;;;;;6.65;1.63;;;;;;;;;;20598284;28;20741;-72
2022/10/04 04:56:47;;;;;;;6.45;1.52;;;;;;;;;;20597791;28;20050;-72
2022/10/04 05:07:00;;;;;;;11.00;1.90;;;;;;;;;;20598158;28;20559;-72
2022/10/04 05:17:02;;;;;;;7.72;2.08;;;;;;;;;;20596686;28;20047;-73
2022/10/04 05:27:05;;;;;;;7.90;2.25;;;;;;;;;;20596031;28;20054;-68
2022/10/04 05:37:15;;;;;;;12.18;2.13;;;;;;;;;;20596091;28;20130;-72
2022/10/04 05:47:23;;;;;;;10.60;1.90;;;;;;;;;;20594132;28;20086;-72
2022/10/04 05:57:33;;;;;;;15.20;2.20;;;;;;;;;;20593476;28;20047;-71
2022/10/04 06:07:39;;;;;;;13.75;2.42;;;;;;;;;;20592385;28;20057;-68
2022/10/04 06:17:47;;;;;;;11.63;2.58;;;;;;;;;;20591651;28;20051;-68
2022/10/04 06:28:03;;;;;;;10.57;3.07;;;;;;;;;;20590434;28;20101;-72
2022/10/04 06:38:09;;;;;;;18.35;3.58;;;;;;;;;;20590511;28;20499;-72
2022/10/04 06:48:17;;;;;;;13.38;3.58;;;;;;;;;;20589234;28;20059;-66
2022/10/04 06:58:29;;;;;;;16.52;2.85;;;;;;;;;;20589201;28;20054;-68
2022/10/04 07:08:31;;;;;;;17.65;5.10;;;;;;;;;;20588381;28;20058;-71
2022/10/04 07:18:56;;;;;;;12.90;3.03;;;;;;;;;;20587724;28;20142;-71
2022/10/04 07:39:25;;;;;;;14.27;3.03;;;;;;;;;;20585405;28;20051;-68
2022/10/04 07:49:27;;;;;;;11.55;2.25;;;;;;;;;;20594614;28;20051;-72
2022/10/04 07:59:31;;;;;;;11.98;2.55;;;;;;;;;;20595736;28;20181;-71
2022/10/04 08:09:34;;;;;;;11.27;2.63;;;;;;;;;;20601662;28;20125;-67
2022/10/04 08:19:54;;;;;;;21.92;2.78;;;;;;;;;;20602555;28;20407;-70
2022/10/04 08:30:05;;;;;;;14.70;3.05;;;;;;;;;;20600974;28;20058;-73
2022/10/04 08:40:13;;;;;;;18.60;3.22;;;;;;;;;;20614181;28;20450;-72
2022/10/04 08:50:32;;;;;;;13.67;3.83;;;;;;;;;;20597776;28;20137;-72
2022/10/04 09:00:37;;;;;;;14.55;3.58;;;;;;;;;;20598606;28;20503;-72
2022/10/04 09:11:04;;;;;;;14.10;3.50;;;;;;;;;;20597447;28;20517;-68
2022/10/04 09:21:07;;;;;;;7.63;2.97;;;;;;;;;;20596934;28;20043;-66
2022/10/04 09:31:28;;;;;;;20.52;4.93;;;;;;;;;;20596690;28;20134;-74
2022/10/04 09:41:39;;;;;;;17.52;5.15;;;;;;;;;;20612195;28;20055;-76
2022/10/04 09:51:42;;;;;;;11.95;3.55;;;;;;;;;;20595470;28;20531;-75
2022/10/04 10:01:50;;;;;;;14.23;4.07;;;;;;;;;;20593172;28;20484;-69
2022/10/04 10:22:58;;;;;;;17.55;4.13;;;;;;;;;;20591540;28;20480;-68
2022/10/04 10:33:19;;;;;;;18.27;3.85;;;;;;;;;;20591772;28;20062;-72
2022/10/04 10:43:48;;;;;;;16.08;3.17;;;;;;;;;;20590472;28;20522;-72
2022/10/04 10:54:08;;;;;;;9.93;3.72;;;;;;;;;;20587846;28;20046;-73
2022/10/04 11:04:34;;;;;;;12.25;3.00;;;;;;;;;;20588781;28;20138;-74
2022/10/04 11:14:55;;;;;;;13.68;3.65;;;;;;;;;;20587819;28;20455;-76
2022/10/04 11:25:17;;;;;;;11.88;2.33;;;;;;;;;;20588725;28;20484;-72
2022/10/04 11:35:33;;;;;;;14.57;2.78;;;;;;;;;;20587768;28;20419;-69
2022/10/04 11:45:53;;;;;;;17.07;3.30;;;;;;;;;;20587010;28;20063;-73
2022/10/04 11:56:10;;;;;;;14.38;3.45;;;;;;;;;;20586121;28;20050;-72
2022/10/04 12:06:32;;;;;;;13.57;3.43;;;;;;;;;;20601193;28;20054;-74
2022/10/04 12:16:43;;;;;;;12.25;2.30;;;;;;;;;;20585763;28;20130;-72
2022/10/04 12:26:46;;;;;;;11.05;3.53;;;;;;;;;;20608886;28;20051;-70
2022/10/04 12:37:12;;;;;;;12.85;2.90;;;;;;;;;;20600925;28;20058;-75
2022/10/04 12:47:26;;;;;;;17.52;2.85;;;;;;;;;;20611703;28;20055;-70
2022/10/04 12:57:38;;;;;;;17.73;3.72;;;;;;;;;;20601114;28;20174;-69
2022/10/04 13:08:06;;;;;;;11.73;2.65;;;;;;;;;;20598565;28;20051;-73
2022/10/04 13:18:19;;;;;;;9.55;2.35;;;;;;;;;;20596054;28;20055;-68
2022/10/04 13:28:31;;;;;;;15.68;3.28;;;;;;;;;;20596422;28;20372;-73
2022/10/04 13:38:51;;;;;;;13.05;3.33;;;;;;;;;;20593928;28;20174;-74
2022/10/04 13:49:11;;;;;;;14.77;2.70;;;;;;;;;;20594285;28;20082;-71
2022/10/04 13:59:22;;;;;;;9.48;2.42;;;;;;;;;;20593290;28;20062;-70
2022/10/04 14:09:40;;;;;;;15.13;3.20;;;;;;;;;;20593314;28;20082;-73
2022/10/04 14:19:58;;;;;;;18.70;3.70;;;;;;;;;;20595253;28;20452;-68
2022/10/04 14:30:06;;;;;;;18.83;3.10;;;;;;;;;;20605963;28;20059;-67
2022/10/04 14:40:15;;;;;;;21.80;3.78;;;;;;;;;;20590844;28;20066;-68
2022/10/04 14:50:29;;;;;;;20.70;3.85;;;;;;;;;;20589381;28;20475;-72
2022/10/04 15:00:49;;;;;;;20.23;3.50;;;;;;;;;;20588832;28;20531;-71
2022/10/04 15:10:57;;;;;;;19.70;3.50;;;;;;;;;;20589432;28;20137;-74
2022/10/04 15:21:02;;;;;;;12.88;3.05;;;;;;;;;;20602419;28;20047;-71
2022/10/04 15:31:15;;;;;;;21.08;6.47;;;;;;;;;;20588941;28;20055;-71
2022/10/04 15:41:17;;;;;;;30.52;9.98;;;;;;;;;;20587046;28;20105;-71
2022/10/04 15:51:19;;;;;;;24.10;3.65;;;;;;;;;;20586893;28;20061;-70
2022/10/04 16:02:00;;;;;;;23.15;3.55;;;;;;;;;;20594900;28;20054;-72
2022/10/04 16:12:07;;;;;;;29.35;4.32;;;;;;;;;;20593162;28;20538;-72
2022/10/04 16:22:13;;;;;;;26.42;4.50;;;;;;;;;;20592492;28;20086;-73
2022/10/04 16:32:15;;;;;;;17.57;4.00;;;;;;;;;;20591913;28;20047;-71
2022/10/04 16:42:19;;;;;;;28.30;5.63;;;;;;;;;;20597775;28;20410;-73
2022/10/04 16:52:21;;;;;;;30.70;5.43;;;;;;;;;;20602100;28;20090;-69
2022/10/04 17:02:45;;;;;;;25.45;4.85;;;;;;;;;;20598471;28;20130;-71
2022/10/04 17:12:50;;;;;;;27.20;4.72;;;;;;;;;;20616315;28;20059;-70
2022/10/04 17:22:54;;;;;;;37.25;6.22;;;;;;;;;;20597766;28;20042;-71
2022/10/04 17:33:11;;;;;;;34.40;9.27;;;;;;;;;;20595654;28;20055;-75
2022/10/04 17:43:22;;;;;;;28.80;7.22;;;;;;;;;;20595194;28;20058;-71
2022/10/04 18:03:53;;;;;;;23.30;7.10;;;;;;;;;;20593108;28;20047;-71
2022/10/04 18:13:59;;;;;;;34.97;7.18;;;;;;;;;;20594629;28;20064;-67
2022/10/04 18:24:19;;;;;;;26.25;7.95;;;;;;;;;;20593799;28;20089;-74
2022/10/04 18:34:28;;;;;;;32.22;10.02;;;;;;;;;;20589933;28;20137;-73
2022/10/04 18:44:43;;;;;;;32.47;7.10;;;;;;;;;;20589189;28;20050;-67
2022/10/04 18:55:03;;;;;;;32.35;7.43;;;;;;;;;;20589079;28;20055;-73
2022/10/04 19:05:17;;;;;;;28.20;6.10;;;;;;;;;;20589298;28;20407;-62
2022/10/04 19:15:25;;;;;;;28.88;6.32;;;;;;;;;;20588300;28;20072;-68
2022/10/04 19:25:27;;;;;;;;;;;;;;;;;;20587632;28;20127;-63
2022/10/04 19:35:40;;;;;;;23.95;7.85;;;;;;;;;;20587406;28;20009;-63
2022/10/04 19:45:44;;;;;;;22.65;5.93;;;;;;;;;;20586231;28;20076;-63
2022/10/04 19:55:52;;;;;;;22.92;6.93;;;;;;;;;;20588768;28;20393;-63
2022/10/04 20:05:54;;;;;;;21.13;6.10;;;;;;;;;;20587947;28;20407;-62
2022/10/04 20:15:59;;;;;;;27.05;6.45;;;;;;;;;;20586124;28;20047;-62
2022/10/04 20:26:01;;;;;;;23.00;6.20;;;;;;;;;;20585499;28;20054;-62
2022/10/04 20:36:04;;;;;;;25.48;6.13;;;;;;;;;;20584879;28;20055;-66
2022/10/04 20:46:21;;;;;;;23.83;5.43;;;;;;;;;;20590541;28;20582;-61
2022/10/04 20:56:30;;;;;;;25.10;5.32;;;;;;;;;;20598729;28;20133;-63
2022/10/04 21:06:49;;;;;;;30.42;5.43;;;;;;;;;;20598699;28;20471;-62
2022/10/04 21:16:55;;;;;;;26.90;4.82;;;;;;;;;;20597089;28;20054;-63
2022/10/04 21:26:57;;;;;;;34.80;5.43;;;;;;;;;;20596485;28;20484;-64
2022/10/04 21:36:59;;;;;;;28.40;4.95;;;;;;;;;;20595115;28;20057;-63
2022/10/04 21:47:01;;;;;;;31.30;5.22;;;;;;;;;;20594701;28;20125;-64
2022/10/04 21:57:03;;;;;;;31.55;6.25;;;;;;;;;;20594125;28;20049;-64
2022/10/04 22:07:05;;;;;;;36.00;5.63;;;;;;;;;;20594165;28;20061;-61
2022/10/04 22:17:06;;;;;;;27.02;4.57;;;;;;;;;;20592478;28;20050;-67
2022/10/04 22:27:15;;;;;;;40.70;5.57;;;;;;;;;;20591896;28;20094;-63
2022/10/04 22:37:20;;;;;;;32.70;5.70;;;;;;;;;;20591997;28;20085;-65
2022/10/04 22:47:24;;;;;;;34.38;5.30;;;;;;;;;;20589696;28;20064;-67
2022/10/04 22:57:26;;;;;;;39.45;5.50;;;;;;;;;;20589318;28;20051;-69
2022/10/04 23:07:28;;;;;;;28.85;6.28;;;;;;;;;;20588284;28;20058;-63
2022/10/04 23:17:35;;;;;;;31.35;6.20;;;;;;;;;;20588713;28;20506;-63
2022/10/04 23:27:37;;;;;;;32.60;6.90;;;;;;;;;;20587557;28;20120;-69
2022/10/04 23:37:39;;;;;;;35.35;6.35;;;;;;;;;;20587507;28;20492;-61
2022/10/04 23:47:41;;;;;;;28.35;5.82;;;;;;;;;;20587378;28;20059;-63
2022/10/04 23:57:43;;;;;;;37.30;6.30;;;;;;;;;;20587078;28;20047;-62
